Domov               UVHVVR             MKGP            O straneh              
ZDRAVSTVENO VARSTVO RASTLIN
  MREŽA AGROMET. POSTAJ
 ► PROGNOSTIČNA OBVESTILA
AGROMETEOROLOŠKI PODATKI -
ARSO
OBVLADOVANJE TVEGANJ ZARADI
NEUGODNIH VREMENSKIH RAZMER
  ► NARAVNE NESREČE
  ► SUŠA/MOČA
  ► NAMAKANJE
  ► ŽLED (gozdarstvo)
KARTOGRAFSKI PRIKAZI
SPLETNE POVEZAVE
PROJEKTI IN PUBLIKACIJE

AGROMETEOROLOŠKA MREŽA: VREMENSKE POSTAJE IN FENOLOŠKA OPAZOVANJA

Pregled podatkov za lokacijo Vipolže, meteorološka postaja 44544

Pregled senzorjev na lokaciji

ID Ime Zadnja
vrednost
Datum
zadnje
spremembe
Tip
senzorja
3083 Temperatura 2 m ( °C) 23,08 °C 17.8.2017 07:00 50YA
3084 Relativna vlaga 2 m (% RH) 64,58 % RH 17.8.2017 07:00 50YA
3085 Omočenost lista (U) 0 U 17.8.2017 07:00 A730WET
3086 Padavine 0.2 mm (mm) 0 mm 17.8.2017 07:00 Rain-O-Matic
4029 Hitrost vetra (km/h) 3,75 km/h 17.8.2017 07:00 Generic 200 km/h
4030 Smer vetra (°) 84,84 ° 17.8.2017 07:00 Generic 0 - 360

Pregled podatkov zadnjih 24 ur

Zap.
št.
Datum in čas Vipolže
Hitrost
vetra
Omočenost
lista
Padavine
0.2
mm
Relativna
vlaga
2
m
Smer
vetra
Temperatura
2
m
0 17.8.2017 06:00 3,75 0 0 64,58 84,84 23,08
1 17.8.2017 05:30 3,22 0 0 64,1 89,78 23,08
2 17.8.2017 05:00 4,42 0 0 62,61 104,62 23,51
3 17.8.2017 04:30 3,44 0 0 63,12 86,69 23,38
4 17.8.2017 04:00 4,78 0 0 60,6 63,87 23,98
5 17.8.2017 03:30 4,15 0 0 60,5 88,52 24,01
6 17.8.2017 03:00 3,22 0 0 62,87 59,9 23,59
7 17.8.2017 02:30 4,38 0 0 62,79 64,61 23,76
8 17.8.2017 02:00 6,49 0 0 60,97 87,05 24,2
9 17.8.2017 01:30 4,96 0 0 60,85 103,1 24,18
10 17.8.2017 01:00 4,82 0 0 62,17 67,84 24,02
11 17.8.2017 00:30 5,35 0 0 63,15 85,88 23,87
12 17.8.2017 00:00 1,98 0 0 65,42 87,87 23,6
13 16.8.2017 23:30 1,82 0 0 72,86 91,12 21,96
14 16.8.2017 23:00 0,29 0 0 67,66 71,29 23,24
15 16.8.2017 22:30 2,04 0 0 65,11 97,62 23,65
16 16.8.2017 22:00 1,68 0 0 63,83 97,26 23,89
17 16.8.2017 21:30 1,13 0 0 64,06 104,14 23,93
18 16.8.2017 21:00 1,85 0 0 64,85 85,29 23,72
19 16.8.2017 20:30 1,96 0 0 62,23 127,42 24,32
20 16.8.2017 20:00 3,9 0 0 59,46 95,65 24,74
21 16.8.2017 19:30 3,84 0 0 58,15 90,75 25,24
22 16.8.2017 19:00 3,16 0 0 54,43 74,79 26,62
23 16.8.2017 18:30 1,49 0 0 53,38 132,82 28,73
24 16.8.2017 18:00 0,5 0 0 53,39 131,55 29,24
25 16.8.2017 17:30 2,67 0 0 62,21 153,43 28,32
26 16.8.2017 17:00 0 0 66,7 340,04 28,83
27 16.8.2017 16:30 0,16 0 0 62,95 316,83 29,46
28 16.8.2017 16:00 0,7 0 0 61,62 282,26 29,43
29 16.8.2017 15:30 2 0 0 53,14 289,71 31,41
30 16.8.2017 15:00 2,45 0 0 48,88 317,5 33,49
31 16.8.2017 14:30 3,75 0 0 50,3 311,16 32,3
32 16.8.2017 14:00 2,93 0 0 52,13 310,19 31,22
33 16.8.2017 13:30 1,84 0 0 48,98 345 31,97
34 16.8.2017 13:00 1,59 0 0 51,53 30,49 31,82
35 16.8.2017 12:30 0,38 0 0 52,1 298,6 31
36 16.8.2017 12:00 0,04 0 0 49,69 277,2 31,43
37 16.8.2017 11:30 0,19 0 0 51,18 58,53 31,16
38 16.8.2017 11:00 0,51 0 0 56,02 214,05 30,26
39 16.8.2017 10:30 0,6 0 0 57,25 226,61 29,59
40 16.8.2017 10:00 0 0 56,33 234,19 30,06
41 16.8.2017 09:30 0,2 0 0 57,17 118,75 29,12
42 16.8.2017 09:00 0,05 0 0 59,59 220,61 28,62
43 16.8.2017 08:30 0 0 65,59 303,76 27
44 16.8.2017 08:00 0 0 72,36 307,21 25,02
© 2011 Ministrstvo za kmetijstvo, gozdarstvo in prehrano. Vse pravice pridržane.